^^

Nearby METAR Reports


EGAC - Belfast Harbour, United Kingdom
Distance from station: W 8mi, 13km
Updated: 13/08/2022 16:20
Clear
Clear
space Wind from NE
Wind: NE 9 mph , 15 km/h
Temperature: 24°C
Dew Point: 15°C
Humidity: 57%
Barometer: 1015 hPa
Clouds: Clear
Visibility: 6 miles , 10 km
2022/08/13 15:20 EGAC 131520Z AUTO 04008KT 010V070 9999 NCD 24/15 Q1015
EGAA - Belfast/Aldergro, United Kingdom
Distance from station: W 22mi, 35km
Updated: 13/08/2022 16:50
Clear
Clear
space Wind from E
Wind: E 8 mph , 13 km/h
Temperature: 26°C
Dew Point: 14°C
Humidity: 48%
Barometer: 1015 hPa
Clouds: Clear
Visibility: 6 miles , 10 km
2022/08/13 15:50 EGAA 131550Z AUTO 10007KT 070V150 9999 NCD 26/14 Q1015
 
EGNS - Isle Of Man/Rona, United Kingdom
Distance from station: SE 57mi, 91km
Updated: 13/08/2022 16:50
Clear
Clear
space Wind from ENE
Wind: ENE 10 mph , 17 km/h
Temperature: 27°C
Dew Point: 9°C
Humidity: 32%
Barometer: 1014 hPa
Summary: Clear
Visibility: greater than 7 miles , 10 km
2022/08/13 15:50 EGNS 131550Z 07009KT CAVOK 27/09 Q1014 NOSIG
EGPK - Prestwick(Civ/Na, United Kingdom
Distance from station: NE 74mi, 119km
Updated: 13/08/2022 16:50
Clear
Clear
space Wind from N
Wind: N 8 mph , 13 km/h
Temperature: 27°C
Heat Index: 28°C
Dew Point: 16°C
Humidity: 51%
Barometer: 1014 hPa
Summary: Clear
Visibility: greater than 7 miles , 10 km
2022/08/13 15:50 EGPK 131550Z 35007KT 320V030 CAVOK 27/16 Q1014
 
EIDW - Dublin Airport, Ireland
Distance from station: SSW 87mi, 141km
Updated: 13/08/2022 16:30
Few Clouds
Few Clouds
space Wind from NE
Wind: NE 10 mph , 17 km/h
Temperature: 23°C
Dew Point: 15°C
Humidity: 61%
Barometer: 1014 hPa
Clouds: Few Clouds
Visibility: 6 miles , 10 km
Cloud details: Few Clouds 610 m
2022/08/13 15:30 EIDW 131530Z 05009KT 340V090 9999 FEW020 23/15 Q1014 NOSIG
EGPF - Glasgow Airport, United Kingdom
Distance from station: NNE 98mi, 158km
Updated: 13/08/2022 16:50
Clear
Clear
space Wind from N
Wind: N 3 mph , 6 km/h
Temperature: 27°C
Heat Index: 28°C
Dew Point: 16°C
Humidity: 51%
Barometer: 1015 hPa
Clouds: Clear
Visibility: 6 miles , 10 km
2022/08/13 15:50 EGPF 131550Z AUTO 01003KT 320V080 9999 NCD 27/16 Q1015